createdAt,value
2018-05-02T00:00:29.644Z,3.27
2018-05-02T00:02:57.652Z,2.67
2018-05-02T00:05:25.692Z,3.53
2018-05-02T00:07:53.683Z,3.00
2018-05-02T00:10:21.801Z,3.00
2018-05-02T00:12:49.838Z,3.53
2018-05-02T00:15:17.818Z,3.53
2018-05-02T00:17:45.825Z,3.00
2018-05-02T00:20:13.794Z,2.70
2018-05-02T00:22:41.778Z,3.70
2018-05-02T00:25:09.778Z,2.73
2018-05-02T00:27:37.745Z,3.50
2018-05-02T00:30:05.716Z,3.23
2018-05-02T00:32:33.725Z,2.97
2018-05-02T00:35:01.732Z,3.10
2018-05-02T00:37:29.731Z,3.00
2018-05-02T00:39:58.258Z,3.13
2018-05-02T00:42:26.239Z,3.47
2018-05-02T00:44:54.204Z,3.10
2018-05-02T00:47:22.361Z,3.23
2018-05-02T00:49:50.445Z,2.83
2018-05-02T00:52:18.547Z,4.07
2018-05-02T00:54:46.549Z,3.53
2018-05-02T00:57:14.591Z,3.50
2018-05-02T00:59:42.563Z,3.60
2018-05-02T01:02:10.555Z,3.97
2018-05-02T01:04:38.533Z,3.60
2018-05-02T01:07:06.500Z,3.80
2018-05-02T01:09:34.505Z,3.07
2018-05-02T01:12:02.541Z,3.00
2018-05-02T01:14:30.554Z,4.10
2018-05-02T01:16:58.532Z,3.70
2018-05-02T01:19:26.515Z,3.50
2018-05-02T01:21:54.694Z,3.90
2018-05-02T01:24:22.684Z,4.03
2018-05-02T01:26:50.671Z,3.87
2018-05-02T01:29:18.677Z,4.13
2018-05-02T01:31:46.649Z,3.60
2018-05-02T01:34:14.626Z,3.70
2018-05-02T01:36:42.596Z,4.00
2018-05-02T01:39:11.274Z,4.10
2018-05-02T01:41:39.252Z,3.40
2018-05-02T01:44:07.281Z,3.53
2018-05-02T01:46:35.285Z,4.20
2018-05-02T01:49:15.097Z,4.40
2018-05-02T01:51:43.111Z,3.90
2018-05-02T01:54:11.329Z,4.70
2018-05-02T01:56:39.324Z,4.10
2018-05-02T01:59:07.313Z,4.50
2018-05-02T02:01:35.288Z,3.90
2018-05-02T02:04:03.291Z,5.00
2018-05-02T02:06:31.294Z,3.50
2018-05-02T02:08:59.266Z,4.77
2018-05-02T02:11:27.239Z,5.10
2018-05-02T02:13:55.228Z,4.73
2018-05-02T02:16:23.220Z,4.37
2018-05-02T02:18:51.196Z,5.17
2018-05-02T02:21:19.183Z,4.93
2018-05-02T02:23:47.161Z,5.30
2018-05-02T02:26:15.133Z,4.60
2018-05-02T02:28:43.202Z,4.83
2018-05-02T02:31:11.168Z,4.97
2018-05-02T02:33:39.160Z,5.53
2018-05-02T02:36:07.129Z,5.20
2018-05-02T02:38:35.146Z,4.87
2018-05-02T02:41:03.148Z,5.70
2018-05-02T02:43:31.136Z,4.40
2018-05-02T02:45:59.100Z,5.20
2018-05-02T02:48:27.072Z,5.53
2018-05-02T02:50:55.040Z,5.00
2018-05-02T02:53:23.016Z,6.20
2018-05-02T02:55:51.010Z,5.00
2018-05-02T02:58:19.024Z,4.70
2018-05-02T03:00:47.021Z,5.43
2018-05-02T03:03:15.029Z,4.70
2018-05-02T03:05:43.025Z,5.73
2018-05-02T03:08:11.026Z,5.60
2018-05-02T03:10:39.020Z,5.60
2018-05-02T03:13:06.988Z,5.60
2018-05-02T03:15:34.974Z,5.40
2018-05-02T03:18:02.966Z,5.60
2018-05-02T03:20:31.025Z,6.53
2018-05-02T03:22:59.012Z,5.03
2018-05-02T03:25:26.989Z,5.40
2018-05-02T03:27:54.983Z,5.43
2018-05-02T03:30:22.968Z,5.30
2018-05-02T03:32:50.962Z,6.43
2018-05-02T03:35:18.931Z,5.07
2018-05-02T03:37:47.648Z,5.40
2018-05-02T03:40:15.649Z,6.53
2018-05-02T03:42:43.575Z,6.73
2018-05-02T03:45:11.486Z,5.77
2018-05-02T03:47:39.386Z,5.83
2018-05-02T03:50:07.287Z,6.30
2018-05-02T03:52:35.216Z,5.73
2018-05-02T03:55:03.141Z,6.23
2018-05-02T03:57:31.035Z,6.30
2018-05-02T04:00:10.640Z,6.43
2018-05-02T04:02:50.380Z,6.77
2018-05-02T04:05:30.224Z,6.30
2018-05-02T04:07:58.362Z,6.67
2018-05-02T04:10:26.278Z,6.47
2018-05-02T04:12:54.189Z,6.67
2018-05-02T04:15:22.118Z,6.13
2018-05-02T04:17:50.018Z,6.10
2018-05-02T04:20:17.929Z,6.30
2018-05-02T04:22:45.838Z,6.30
2018-05-02T04:25:13.802Z,6.53
2018-05-02T04:27:41.717Z,6.03
2018-05-02T04:30:09.640Z,7.37
2018-05-02T04:32:37.556Z,5.53
2018-05-02T04:35:05.466Z,5.90
2018-05-02T04:37:33.426Z,6.47
2018-05-02T04:40:01.324Z,6.43
2018-05-02T04:42:29.918Z,6.13
2018-05-02T04:44:58.076Z,6.47
2018-05-02T04:47:26.003Z,7.07
2018-05-02T04:49:53.917Z,7.40
2018-05-02T04:52:21.847Z,6.43
2018-05-02T04:54:49.835Z,5.73
2018-05-02T04:57:17.747Z,5.73
2018-05-02T04:59:45.663Z,5.80
2018-05-02T05:02:13.739Z,6.60
2018-05-02T05:04:41.672Z,6.37
2018-05-02T05:07:09.587Z,4.30
2018-05-02T05:09:37.508Z,5.20
2018-05-02T05:12:05.433Z,6.53
2018-05-02T05:14:33.368Z,6.07
2018-05-02T05:17:01.496Z,5.53
2018-05-02T05:19:38.716Z,4.70
2018-05-02T05:22:11.507Z,5.70
2018-05-02T05:24:41.527Z,5.17
2018-05-02T05:27:14.920Z,5.53
2018-05-02T05:29:44.988Z,6.10
2018-05-02T05:32:14.455Z,7.20
2018-05-02T05:35:11.898Z,5.70
2018-05-02T05:37:42.760Z,5.30
2018-05-02T05:40:10.671Z,5.17
2018-05-02T05:42:38.619Z,4.90
2018-05-02T05:45:06.531Z,5.33
2018-05-02T05:47:34.467Z,4.93
2018-05-02T05:50:02.356Z,5.00
2018-05-02T05:52:30.302Z,4.80
2018-05-02T05:54:58.194Z,4.80
2018-05-02T05:57:26.130Z,4.83
2018-05-02T05:59:54.088Z,5.07
2018-05-02T06:02:22.000Z,4.67
2018-05-02T06:04:49.932Z,4.73
2018-05-02T06:07:17.837Z,4.20
2018-05-02T06:09:45.760Z,4.97
2018-05-02T06:12:13.682Z,5.37
2018-05-02T06:14:41.622Z,4.90
2018-05-02T06:17:09.567Z,5.47
2018-05-02T06:19:37.709Z,5.10
2018-05-02T06:22:05.841Z,4.73
2018-05-02T06:24:34.509Z,4.93
2018-05-02T06:27:02.596Z,5.67
2018-05-02T06:29:30.505Z,4.27
2018-05-02T06:31:58.519Z,4.67
2018-05-02T06:34:26.395Z,5.20
2018-05-02T06:36:54.359Z,5.30
2018-05-02T06:39:22.380Z,4.50
2018-05-02T06:41:50.383Z,4.60
2018-05-02T06:44:18.453Z,4.40
2018-05-02T06:46:46.410Z,4.17
2018-05-02T06:49:14.456Z,4.27
2018-05-02T06:51:42.374Z,4.80
2018-05-02T06:54:10.284Z,4.50
2018-05-02T06:56:38.199Z,4.80
2018-05-02T06:59:06.903Z,4.37
2018-05-02T07:01:34.854Z,4.37
2018-05-02T07:04:03.268Z,4.27
2018-05-02T07:06:31.223Z,3.60
2018-05-02T07:08:59.129Z,4.43
2018-05-02T07:11:27.100Z,4.30
2018-05-02T07:13:55.012Z,4.40
2018-05-02T07:16:23.172Z,3.73
2018-05-02T07:18:51.773Z,4.37
2018-05-02T07:21:20.238Z,5.30
2018-05-02T07:23:48.206Z,3.90
2018-05-02T07:26:16.290Z,3.73
2018-05-02T07:28:45.509Z,3.83
2018-05-02T07:31:13.475Z,4.53
2018-05-02T07:33:41.715Z,5.10
2018-05-02T07:36:10.052Z,4.20
2018-05-02T07:38:37.948Z,4.00
2018-05-02T07:41:05.888Z,4.20
2018-05-02T07:43:33.824Z,4.60
2018-05-02T07:46:01.746Z,4.07
2018-05-02T07:48:29.751Z,4.03
2018-05-02T07:50:57.628Z,3.33
2018-05-02T07:53:25.553Z,4.70
2018-05-02T07:55:53.484Z,3.50
2018-05-02T07:58:21.426Z,3.70
2018-05-02T08:00:49.524Z,3.47
2018-05-02T08:03:17.441Z,2.60
2018-05-02T08:05:45.390Z,2.90
2018-05-02T08:08:13.314Z,3.27
2018-05-02T08:10:41.333Z,3.63
2018-05-02T08:13:09.221Z,3.20
2018-05-02T08:15:37.239Z,2.80
2018-05-02T08:18:05.160Z,2.50
2018-05-02T08:20:33.062Z,3.10
2018-05-02T08:23:00.992Z,2.90
2018-05-02T08:25:28.880Z,2.60
2018-05-02T08:27:56.807Z,2.43
2018-05-02T08:30:24.698Z,2.67
2018-05-02T08:32:52.649Z,2.53
2018-05-02T08:35:20.520Z,2.20
2018-05-02T08:37:48.518Z,2.33
2018-05-02T08:40:16.412Z,2.30
2018-05-02T08:42:44.339Z,2.30
2018-05-02T08:45:12.253Z,2.33
2018-05-02T08:47:40.158Z,2.50
2018-05-02T08:50:08.090Z,2.40
2018-05-02T08:52:35.978Z,2.40
2018-05-02T08:55:03.895Z,2.00
2018-05-02T08:57:31.948Z,2.83
2018-05-02T08:59:59.785Z,2.70
2018-05-02T09:02:27.700Z,3.30
2018-05-02T09:04:55.665Z,2.27
2018-05-02T09:07:23.592Z,2.43
2018-05-02T09:09:51.545Z,2.30
2018-05-02T09:12:19.548Z,2.20
2018-05-02T09:14:47.507Z,3.40
2018-05-02T09:17:15.422Z,2.60
2018-05-02T09:19:43.331Z,2.47
2018-05-02T09:22:11.228Z,2.33
2018-05-02T09:24:39.152Z,1.87
2018-05-02T09:27:07.081Z,1.80
2018-05-02T09:29:35.075Z,2.10
2018-05-02T09:32:02.964Z,1.93
2018-05-02T09:34:30.905Z,2.50
2018-05-02T09:36:58.826Z,2.30
2018-05-02T09:39:26.731Z,2.87
2018-05-02T09:41:54.637Z,2.10
2018-05-02T09:44:22.567Z,2.13
2018-05-02T09:46:50.477Z,2.30
2018-05-02T09:49:19.428Z,2.60
2018-05-02T09:51:47.343Z,2.37
2018-05-02T09:54:15.275Z,2.90
2018-05-02T09:56:43.199Z,2.73
2018-05-02T09:59:11.144Z,2.43
2018-05-02T10:01:39.848Z,3.00
2018-05-02T10:04:07.768Z,2.83
2018-05-02T10:06:35.695Z,2.67
2018-05-02T10:09:03.638Z,3.00
2018-05-02T10:11:31.578Z,2.03
2018-05-02T10:13:59.451Z,3.47
2018-05-02T10:16:27.382Z,3.10
2018-05-02T10:18:55.311Z,2.67
2018-05-02T10:21:23.227Z,3.00
2018-05-02T10:23:51.170Z,2.23
2018-05-02T10:26:19.104Z,3.77
2018-05-02T10:28:47.028Z,3.40
2018-05-02T10:31:14.956Z,3.40
2018-05-02T10:33:42.858Z,2.70
2018-05-02T10:36:10.785Z,3.57
2018-05-02T10:38:38.696Z,3.87
2018-05-02T10:41:06.659Z,3.53
2018-05-02T10:43:34.604Z,3.40
2018-05-02T10:46:02.508Z,3.50
2018-05-02T10:48:30.426Z,3.10
2018-05-02T10:50:58.356Z,3.43
2018-05-02T10:53:26.261Z,3.50
2018-05-02T10:55:54.221Z,3.00
2018-05-02T10:58:22.084Z,3.30
2018-05-02T11:00:50.084Z,2.50
2018-05-02T11:03:18.077Z,3.10
2018-05-02T11:05:45.975Z,3.30
2018-05-02T11:08:13.907Z,3.13
2018-05-02T11:10:41.824Z,2.97
2018-05-02T11:13:09.796Z,2.70
2018-05-02T11:15:37.682Z,3.20
2018-05-02T11:18:05.613Z,2.80
2018-05-02T11:20:33.519Z,3.00
2018-05-02T11:23:01.486Z,3.90
2018-05-02T11:25:29.387Z,3.50
2018-05-02T11:27:57.320Z,4.20
2018-05-02T11:30:25.217Z,3.40
2018-05-02T11:32:53.148Z,3.30
2018-05-02T11:35:21.052Z,2.93
2018-05-02T11:37:48.982Z,3.73
2018-05-02T11:40:16.884Z,4.07
2018-05-02T11:42:44.787Z,4.33
2018-05-02T11:45:12.693Z,3.77
2018-05-02T11:47:40.643Z,3.60
2018-05-02T11:50:08.602Z,3.30
2018-05-02T11:52:36.512Z,3.47
2018-05-02T11:55:04.444Z,3.17
2018-05-02T11:57:32.393Z,3.90
2018-05-02T12:00:00.323Z,3.80
2018-05-02T12:02:28.277Z,3.60
2018-05-02T12:04:56.175Z,3.77
2018-05-02T12:07:24.297Z,3.27
2018-05-02T12:09:52.391Z,3.23
2018-05-02T12:12:20.287Z,3.40
2018-05-02T12:14:48.233Z,3.93
2018-05-02T12:17:16.139Z,3.80
2018-05-02T12:19:44.990Z,3.03
2018-05-02T12:22:12.912Z,3.50
2018-05-02T12:24:40.864Z,3.40
2018-05-02T12:27:08.814Z,3.60
2018-05-02T12:29:36.784Z,2.90
2018-05-02T12:32:04.807Z,3.10
2018-05-02T12:34:32.805Z,3.83
2018-05-02T12:37:00.691Z,4.00
2018-05-02T12:39:28.719Z,3.43
2018-05-02T12:41:56.691Z,4.10
2018-05-02T12:44:24.642Z,3.83
2018-05-02T12:46:52.636Z,3.80
2018-05-02T12:49:20.579Z,4.00
2018-05-02T12:51:48.492Z,3.90
2018-05-02T12:54:16.419Z,4.07
2018-05-02T12:56:44.329Z,4.10
2018-05-02T12:59:12.276Z,3.57
2018-05-02T13:01:40.211Z,4.03
2018-05-02T13:04:08.404Z,3.47
2018-05-02T13:06:36.347Z,4.50
2018-05-02T13:09:04.255Z,4.40
2018-05-02T13:11:32.235Z,4.63
2018-05-02T13:14:00.175Z,3.80
2018-05-02T13:16:28.101Z,4.40
2018-05-02T13:18:56.029Z,4.03
2018-05-02T13:21:24.678Z,4.30
2018-05-02T13:23:53.399Z,4.00
2018-05-02T13:26:21.320Z,4.27
2018-05-02T13:28:49.295Z,14.97
2018-05-02T13:31:17.216Z,4.20
2018-05-02T13:33:45.131Z,4.33
2018-05-02T13:36:13.095Z,3.87
2018-05-02T13:38:41.013Z,8.80
2018-05-02T13:41:08.974Z,5.50
2018-05-02T13:43:36.985Z,4.73
2018-05-02T13:46:04.893Z,3.40
2018-05-02T13:48:32.804Z,4.83
2018-05-02T13:51:00.747Z,8.43
2018-05-02T13:53:28.639Z,3.40
2018-05-02T13:55:56.604Z,4.43
2018-05-02T13:58:24.568Z,3.57
2018-05-02T14:00:52.526Z,3.30
2018-05-02T14:03:20.447Z,4.40
2018-05-02T14:05:49.170Z,3.70
2018-05-02T14:08:17.086Z,4.07
2018-05-02T14:10:45.009Z,4.30
2018-05-02T14:13:12.944Z,4.90
2018-05-02T14:15:40.844Z,4.13
2018-05-02T14:18:08.753Z,3.90
2018-05-02T14:20:36.742Z,3.90
2018-05-02T14:23:04.669Z,3.70
2018-05-02T14:25:32.558Z,3.57
2018-05-02T14:28:00.467Z,4.23
2018-05-02T14:30:28.393Z,3.80
2018-05-02T14:32:56.503Z,3.83
2018-05-02T14:35:24.264Z,4.30
2018-05-02T14:37:52.175Z,4.83
2018-05-02T14:40:20.116Z,4.60
2018-05-02T14:42:48.022Z,4.07
2018-05-02T14:45:16.122Z,4.23
2018-05-02T14:47:43.962Z,5.47
2018-05-02T14:50:11.910Z,3.60
2018-05-02T14:52:39.796Z,4.60
2018-05-02T14:55:07.709Z,3.93
2018-05-02T14:57:35.607Z,4.40
2018-05-02T15:00:03.541Z,3.43
2018-05-02T15:02:31.475Z,3.60
2018-05-02T15:04:59.419Z,3.73
2018-05-02T15:07:27.383Z,3.97
2018-05-02T15:09:55.305Z,3.30
2018-05-02T15:12:23.244Z,3.63
2018-05-02T15:14:51.154Z,4.50
2018-05-02T15:17:19.073Z,3.77
2018-05-02T15:19:46.996Z,3.70
2018-05-02T15:22:14.919Z,4.00
2018-05-02T15:24:42.900Z,4.10
2018-05-02T15:27:10.751Z,4.10
2018-05-02T15:29:38.729Z,4.90
2018-05-02T15:32:06.677Z,3.97
2018-05-02T15:34:34.666Z,4.27
2018-05-02T15:37:02.606Z,4.80
2018-05-02T15:39:30.513Z,4.73
2018-05-02T15:41:58.430Z,4.67
2018-05-02T15:44:26.553Z,4.97
2018-05-02T15:46:54.456Z,6.17
2018-05-02T15:49:22.495Z,5.23
2018-05-02T15:51:50.356Z,5.23
2018-05-02T15:54:18.372Z,4.97
2018-05-02T15:56:46.275Z,5.27
2018-05-02T15:59:14.211Z,4.90
2018-05-02T16:01:42.183Z,7.37
2018-05-02T16:04:10.134Z,4.90
2018-05-02T16:06:38.353Z,5.47
2018-05-02T16:09:07.883Z,4.23
2018-05-02T16:11:35.784Z,4.27
2018-05-02T16:14:03.703Z,4.73
2018-05-02T16:16:31.724Z,4.43
2018-05-02T16:19:00.427Z,3.80
2018-05-02T16:21:28.360Z,4.33
2018-05-02T16:23:56.264Z,4.33
2018-05-02T16:26:24.186Z,4.67
2018-05-02T16:28:52.105Z,3.90
2018-05-02T16:31:20.036Z,4.80
2018-05-02T16:33:47.991Z,5.40
2018-05-02T16:36:16.304Z,7.30
2018-05-02T16:38:44.610Z,5.10
2018-05-02T16:41:12.592Z,4.80
2018-05-02T16:43:40.502Z,5.17
2018-05-02T16:46:08.504Z,5.43
2018-05-02T16:48:36.410Z,4.40
2018-05-02T16:51:04.311Z,4.03
2018-05-02T16:53:32.415Z,4.53
2018-05-02T16:56:00.320Z,4.00
2018-05-02T16:58:28.294Z,5.47
2018-05-02T17:00:56.198Z,5.37
2018-05-02T17:03:24.100Z,5.20
2018-05-02T17:05:52.116Z,4.83
2018-05-02T17:08:20.099Z,6.10
2018-05-02T17:10:48.063Z,4.57
2018-05-02T17:13:16.131Z,4.40
2018-05-02T17:15:44.044Z,5.30
2018-05-02T17:18:11.963Z,5.70
2018-05-02T17:20:39.909Z,6.00
2018-05-02T17:23:07.980Z,6.50
2018-05-02T17:25:37.400Z,4.80
2018-05-02T17:28:05.361Z,5.40
2018-05-02T17:30:33.332Z,4.73
2018-05-02T17:33:01.995Z,4.50
2018-05-02T17:35:29.933Z,5.10
2018-05-02T17:37:58.031Z,5.27
2018-05-02T17:40:26.059Z,4.60
2018-05-02T17:42:54.011Z,5.90
2018-05-02T17:45:21.918Z,5.50
2018-05-02T17:47:50.211Z,32.60
2018-05-02T17:50:18.386Z,6.47
2018-05-02T17:52:46.376Z,5.17
2018-05-02T17:55:14.353Z,7.00
2018-05-02T17:57:42.279Z,4.90
2018-05-02T18:00:10.222Z,5.90
2018-05-02T18:02:38.300Z,5.43
2018-05-02T18:05:06.180Z,5.87
2018-05-02T18:07:35.422Z,7.43
2018-05-02T18:10:04.176Z,7.50
2018-05-02T18:12:32.219Z,8.73
2018-05-02T18:15:00.375Z,7.10
2018-05-02T18:17:28.292Z,6.73
2018-05-02T18:19:56.328Z,6.70
2018-05-02T18:22:24.282Z,5.90
2018-05-02T18:24:52.199Z,5.87
2018-05-02T18:27:20.200Z,6.27
2018-05-02T18:29:48.062Z,6.60
2018-05-02T18:32:15.999Z,6.37
2018-05-02T18:34:43.963Z,6.87
2018-05-02T18:37:11.984Z,5.80
2018-05-02T18:39:39.963Z,5.67
2018-05-02T18:42:08.015Z,6.63
2018-05-02T18:44:35.956Z,6.97
2018-05-02T18:47:03.967Z,7.13
2018-05-02T18:49:31.862Z,6.73
2018-05-02T18:51:59.796Z,6.57
2018-05-02T18:54:27.725Z,7.10
2018-05-02T18:56:55.667Z,6.80
2018-05-02T18:59:23.619Z,6.33
2018-05-02T19:01:51.539Z,6.80
2018-05-02T19:04:19.498Z,7.20
2018-05-02T19:06:47.405Z,6.53
2018-05-02T19:09:16.159Z,6.77
2018-05-02T19:11:44.169Z,8.43
2018-05-02T19:14:12.093Z,7.70
2018-05-02T19:16:40.336Z,9.00
2018-05-02T19:19:13.905Z,8.03
2018-05-02T19:21:41.856Z,10.17
2018-05-02T19:24:09.813Z,8.33
2018-05-02T19:26:37.716Z,9.13
2018-05-02T19:29:06.403Z,9.77
2018-05-02T19:31:39.915Z,8.20
2018-05-02T19:34:07.830Z,7.60
2018-05-02T19:36:35.782Z,8.00
2018-05-02T19:39:03.712Z,8.63
2018-05-02T19:44:30.119Z,7.70
2018-05-02T19:46:58.856Z,7.40
2018-05-02T19:49:26.781Z,8.90
2018-05-02T19:52:00.471Z,7.73
2018-05-02T19:54:29.440Z,8.33
2018-05-02T19:56:57.463Z,7.50
2018-05-02T19:59:25.392Z,8.23
2018-05-02T20:01:58.841Z,7.57
2018-05-02T20:04:26.786Z,7.67
2018-05-02T20:06:54.712Z,8.97
2018-05-02T20:09:28.280Z,9.17
2018-05-02T20:12:01.922Z,9.70
2018-05-02T20:14:29.931Z,9.20
2018-05-02T20:16:58.301Z,8.60
2018-05-02T20:19:26.313Z,8.93
2018-05-02T20:21:54.231Z,9.50
2018-05-02T20:24:22.602Z,9.93
2018-05-02T20:26:50.512Z,8.67
2018-05-02T20:29:18.439Z,8.80
2018-05-02T20:31:46.335Z,8.90
2018-05-02T20:34:14.228Z,9.40
2018-05-02T20:36:42.167Z,8.60
2018-05-02T20:39:10.187Z,8.90
2018-05-02T20:41:38.121Z,9.70
2018-05-02T20:44:06.032Z,10.50
2018-05-02T20:46:33.950Z,10.30
2018-05-02T20:49:01.856Z,11.57
2018-05-02T20:51:29.978Z,10.17
2018-05-02T20:53:57.943Z,11.37
2018-05-02T20:56:25.848Z,10.33
2018-05-02T20:58:53.806Z,9.27
2018-05-02T21:01:21.720Z,9.33
2018-05-02T21:03:49.659Z,8.97
2018-05-02T21:06:17.608Z,8.97
2018-05-02T21:08:45.519Z,8.80
2018-05-02T21:11:13.435Z,8.73
2018-05-02T21:13:41.467Z,8.40
2018-05-02T21:16:09.364Z,9.30
2018-05-02T21:18:37.269Z,8.40
2018-05-02T21:21:05.335Z,8.50
2018-05-02T21:23:33.274Z,8.70
2018-05-02T21:26:01.207Z,8.60
2018-05-02T21:28:29.105Z,9.10
2018-05-02T21:30:57.068Z,8.40
2018-05-02T21:33:25.246Z,8.80
2018-05-02T21:35:53.456Z,9.00
2018-05-02T21:38:21.564Z,8.80
2018-05-02T21:40:49.490Z,8.33
2018-05-02T21:43:17.431Z,7.50
2018-05-02T21:45:45.551Z,8.40
2018-05-02T21:48:13.571Z,8.13
2018-05-02T21:50:42.007Z,8.10
2018-05-02T21:53:10.411Z,7.40
2018-05-02T21:55:38.330Z,7.40
2018-05-02T21:58:06.240Z,7.60
2018-05-02T22:00:34.167Z,7.50
2018-05-02T22:03:02.079Z,7.70
2018-05-02T22:05:30.030Z,7.43
2018-05-02T22:07:57.998Z,7.00
2018-05-02T22:10:25.911Z,6.63
2018-05-02T22:12:53.842Z,6.43
2018-05-02T22:15:21.831Z,7.00
2018-05-02T22:17:49.758Z,6.60
2018-05-02T22:20:17.703Z,6.10
2018-05-02T22:22:45.651Z,5.53
2018-05-02T22:25:13.614Z,6.40
2018-05-02T22:27:41.532Z,6.63
2018-05-02T22:30:09.474Z,5.80
2018-05-02T22:32:37.457Z,5.83
2018-05-02T22:35:05.388Z,5.60
2018-05-02T22:37:33.308Z,5.47
2018-05-02T22:40:01.224Z,5.50
2018-05-02T22:42:29.167Z,5.30
2018-05-02T22:44:57.113Z,5.23
2018-05-02T22:47:25.022Z,5.43
2018-05-02T22:49:52.949Z,5.87
2018-05-02T22:52:20.883Z,6.50
2018-05-02T22:54:48.795Z,5.80
2018-05-02T22:57:16.748Z,4.97
2018-05-02T22:59:44.651Z,6.13
2018-05-02T23:02:12.601Z,5.80
2018-05-02T23:04:40.496Z,5.87
2018-05-02T23:07:08.446Z,5.47
2018-05-02T23:09:36.373Z,5.37
2018-05-02T23:12:04.295Z,5.83
2018-05-02T23:14:32.225Z,6.03
2018-05-02T23:17:00.154Z,5.83
2018-05-02T23:19:28.095Z,6.00
2018-05-02T23:21:56.016Z,5.50
2018-05-02T23:24:23.939Z,6.70
2018-05-02T23:26:51.847Z,6.50
2018-05-02T23:29:19.800Z,4.87
2018-05-02T23:31:47.736Z,6.30
2018-05-02T23:34:15.658Z,5.40
2018-05-02T23:36:43.991Z,5.57
2018-05-02T23:39:11.935Z,5.73
2018-05-02T23:41:39.827Z,6.07
2018-05-02T23:44:07.775Z,6.80
2018-05-02T23:46:35.699Z,5.83
2018-05-02T23:49:03.662Z,5.93
2018-05-02T23:51:31.556Z,6.23
2018-05-02T23:53:59.475Z,6.00
2018-05-02T23:56:27.388Z,5.83
2018-05-02T23:58:55.464Z,6.10
